El Centenario, Mexico

11:16 PM MDT on July 25, 2014 (GMT -0600)
Gen Manuel Marquez De Leon (MMLP) Elev 69 ft | 24.07 °N, 110.36 °W | Change Station

Current weather conditions updated 35 minutes ago

Scattered Clouds
Scattered Clouds
81 °F
Feels Like 85 °F
N
0
Wind Variable Wind from North

Tomorrow is forecast to be nearly the same temperature as today.

Today
High -- | Low -- °F
--% Chance of Precip.
Yesterday
High -- | Low -- °F
Precip. -- in
6:47 AM 8:08 PM
Waning Crescent, 0% visible
Pressure 29.97 in
Visibility 10.0 miles
Clouds Scattered Clouds 20000 ft
Heat Index 85 °F
Dew Point 73 °F
Humidity 79%
Rainfall 0.00 in
Snow Depth Not available.
UV 0 out of 12
Pollen Not available.
Air Quality Not available.
Flu Activity Not available.
METAR MMLP 260441Z 00000KT 10SM SCT200 27/23 A2997 RMK 8/006 ISOL AC

More Conditions Fewer Conditions

Pressure 29.97 in
Visibility 10.0 miles
Clouds Scattered Clouds 20000 ft
Heat Index 85 °F
Dew Point 73 °F
Humidity 79%
Rainfall 0.00 in
Snow Depth Not available.
UV 0 out of 12
Pollen Not available.
Air Quality Not available.
Flu Activity Not available.
METAR MMLP 260441Z 00000KT 10SM SCT200 27/23 A2997 RMK 8/006 ISOL AC

More Conditions Fewer Conditions

10-Day Weather Forecast

Almanac

Astronomy

Jul. 25, 2014 Rise Set
Actual Time 6:47 AM MDT 8:08 PM MDT
Civil Twilight 6:22 AM MDT 8:32 PM MDT
Nautical Twilight 5:53 AM MDT 9:02 PM MDT
Astronomical Twilight 5:23 AM MDT 9:32 PM MDT
Moon 5:45 AM MDT (7/25) 7:13 PM MDT (7/25)
Length of Visible Light 14h 10m
Length of Day
13h 20m
Tomorrow will be 0m 55s shorter.
Waning Crescent, 0% of the Moon is Illuminated
Jul 26
Waning Crescent
Jul 26
New
Aug 3
First Quarter
Aug 10
Full
Aug 17
Last Quarter

Today's Extremes

Country Highs Country Lows

Community

WunderPhotos

Upload Photos

1,737,521 photos uploaded!

Nearby

Snow Depth

Not available.

Earthquake Activity

City Distance Mag. Time & Date
No recent earthquake activity has been reported nearby.
Minimum magnitude displayed is 2.5.

Coastal Water Temperatures

Place Temperature
No Stations Reporting

Nearby Weather Stations

There are no personal weather stations in this area.